sensor_id;sensor_type;location;lat;lon;timestamp;P1;durP1;ratioP1;P2;durP2;ratioP2
6463;SDS011;3265;42.694;23.282;2022-10-22T00:01:49;42.60;;;24.00;;
6463;SDS011;3265;42.694;23.282;2022-10-22T00:04:15;42.83;;;24.07;;
6463;SDS011;3265;42.694;23.282;2022-10-22T00:06:42;41.20;;;23.73;;
6463;SDS011;3265;42.694;23.282;2022-10-22T00:09:09;40.20;;;24.83;;
6463;SDS011;3265;42.694;23.282;2022-10-22T00:11:37;42.10;;;24.70;;
6463;SDS011;3265;42.694;23.282;2022-10-22T00:14:04;42.97;;;24.93;;
6463;SDS011;3265;42.694;23.282;2022-10-22T00:16:31;48.30;;;25.73;;
6463;SDS011;3265;42.694;23.282;2022-10-22T00:18:58;43.97;;;25.90;;
6463;SDS011;3265;42.694;23.282;2022-10-22T00:21:25;42.20;;;26.23;;
6463;SDS011;3265;42.694;23.282;2022-10-22T00:23:53;55.90;;;28.77;;
6463;SDS011;3265;42.694;23.282;2022-10-22T00:26:20;54.50;;;28.87;;
6463;SDS011;3265;42.694;23.282;2022-10-22T00:28:49;50.10;;;28.10;;
6463;SDS011;3265;42.694;23.282;2022-10-22T00:31:15;53.03;;;29.17;;
6463;SDS011;3265;42.694;23.282;2022-10-22T00:33:44;49.37;;;26.07;;
6463;SDS011;3265;42.694;23.282;2022-10-22T00:36:14;44.13;;;26.57;;
6463;SDS011;3265;42.694;23.282;2022-10-22T00:38:41;46.73;;;27.67;;
6463;SDS011;3265;42.694;23.282;2022-10-22T00:41:08;46.50;;;28.27;;
6463;SDS011;3265;42.694;23.282;2022-10-22T00:46:22;53.93;;;31.40;;
6463;SDS011;3265;42.694;23.282;2022-10-22T00:48:50;48.87;;;29.63;;
6463;SDS011;3265;42.694;23.282;2022-10-22T00:51:18;46.97;;;28.70;;
6463;SDS011;3265;42.694;23.282;2022-10-22T00:53:48;44.57;;;27.57;;
6463;SDS011;3265;42.694;23.282;2022-10-22T00:56:19;42.80;;;25.57;;
6463;SDS011;3265;42.694;23.282;2022-10-22T00:58:46;47.73;;;26.43;;
6463;SDS011;3265;42.694;23.282;2022-10-22T01:01:19;45.57;;;26.97;;
6463;SDS011;3265;42.694;23.282;2022-10-22T01:03:48;45.07;;;29.23;;
6463;SDS011;3265;42.694;23.282;2022-10-22T01:06:21;38.50;;;23.23;;
6463;SDS011;3265;42.694;23.282;2022-10-22T01:08:52;39.20;;;24.13;;
6463;SDS011;3265;42.694;23.282;2022-10-22T01:11:32;36.90;;;23.63;;
6463;SDS011;3265;42.694;23.282;2022-10-22T01:14:08;36.53;;;24.27;;
6463;SDS011;3265;42.694;23.282;2022-10-22T01:16:46;39.60;;;24.07;;
6463;SDS011;3265;42.694;23.282;2022-10-22T01:19:27;33.77;;;21.30;;
6463;SDS011;3265;42.694;23.282;2022-10-22T01:22:08;36.83;;;22.23;;
6463;SDS011;3265;42.694;23.282;2022-10-22T01:24:46;42.27;;;25.10;;
6463;SDS011;3265;42.694;23.282;2022-10-22T01:30:18;41.27;;;24.97;;
6463;SDS011;3265;42.694;23.282;2022-10-22T01:32:47;40.67;;;22.47;;
6463;SDS011;3265;42.694;23.282;2022-10-22T01:35:17;35.40;;;22.20;;
6463;SDS011;3265;42.694;23.282;2022-10-22T01:37:48;36.23;;;20.73;;
6463;SDS011;3265;42.694;23.282;2022-10-22T01:40:18;40.17;;;22.80;;
6463;SDS011;3265;42.694;23.282;2022-10-22T01:42:53;36.43;;;22.67;;
6463;SDS011;3265;42.694;23.282;2022-10-22T01:45:23;41.60;;;24.20;;
6463;SDS011;3265;42.694;23.282;2022-10-22T01:47:53;39.03;;;22.87;;
6463;SDS011;3265;42.694;23.282;2022-10-22T01:53:38;37.73;;;23.30;;
6463;SDS011;3265;42.694;23.282;2022-10-22T01:56:15;37.03;;;22.33;;
6463;SDS011;3265;42.694;23.282;2022-10-22T01:58:54;39.27;;;23.00;;
6463;SDS011;3265;42.694;23.282;2022-10-22T02:01:32;40.37;;;23.53;;
6463;SDS011;3265;42.694;23.282;2022-10-22T02:04:08;32.73;;;22.30;;
6463;SDS011;3265;42.694;23.282;2022-10-22T02:06:41;36.33;;;22.83;;
6463;SDS011;3265;42.694;23.282;2022-10-22T02:09:11;44.50;;;24.40;;
6463;SDS011;3265;42.694;23.282;2022-10-22T02:11:41;37.03;;;23.57;;
6463;SDS011;3265;42.694;23.282;2022-10-22T02:14:09;37.77;;;22.90;;
6463;SDS011;3265;42.694;23.282;2022-10-22T02:16:41;43.13;;;24.50;;
6463;SDS011;3265;42.694;23.282;2022-10-22T02:19:10;36.30;;;23.07;;
6463;SDS011;3265;42.694;23.282;2022-10-22T02:21:43;42.83;;;23.23;;
6463;SDS011;3265;42.694;23.282;2022-10-22T02:24:10;34.80;;;22.03;;
6463;SDS011;3265;42.694;23.282;2022-10-22T02:26:38;38.97;;;21.43;;
6463;SDS011;3265;42.694;23.282;2022-10-22T02:29:10;38.07;;;23.03;;
6463;SDS011;3265;42.694;23.282;2022-10-22T02:31:41;38.97;;;22.63;;
6463;SDS011;3265;42.694;23.282;2022-10-22T02:34:11;39.57;;;24.43;;
6463;SDS011;3265;42.694;23.282;2022-10-22T02:36:43;42.80;;;24.77;;
6463;SDS011;3265;42.694;23.282;2022-10-22T02:39:12;43.00;;;24.97;;
6463;SDS011;3265;42.694;23.282;2022-10-22T02:41:40;45.27;;;25.13;;
6463;SDS011;3265;42.694;23.282;2022-10-22T02:44:08;41.33;;;23.57;;
6463;SDS011;3265;42.694;23.282;2022-10-22T02:46:36;41.17;;;23.80;;
6463;SDS011;3265;42.694;23.282;2022-10-22T02:49:04;45.57;;;24.53;;
6463;SDS011;3265;42.694;23.282;2022-10-22T02:51:32;40.47;;;24.33;;
6463;SDS011;3265;42.694;23.282;2022-10-22T02:53:59;43.60;;;24.53;;
6463;SDS011;3265;42.694;23.282;2022-10-22T02:56:26;41.63;;;24.40;;
6463;SDS011;3265;42.694;23.282;2022-10-22T02:58:52;39.87;;;24.33;;
6463;SDS011;3265;42.694;23.282;2022-10-22T03:01:19;40.07;;;23.60;;
6463;SDS011;3265;42.694;23.282;2022-10-22T03:03:46;42.23;;;24.80;;
6463;SDS011;3265;42.694;23.282;2022-10-22T03:06:14;46.23;;;24.77;;
6463;SDS011;3265;42.694;23.282;2022-10-22T03:08:41;44.43;;;24.50;;
6463;SDS011;3265;42.694;23.282;2022-10-22T03:11:07;49.40;;;25.90;;
6463;SDS011;3265;42.694;23.282;2022-10-22T03:13:34;44.57;;;24.67;;
6463;SDS011;3265;42.694;23.282;2022-10-22T03:16:01;41.57;;;25.97;;
6463;SDS011;3265;42.694;23.282;2022-10-22T03:18:28;44.60;;;22.40;;
6463;SDS011;3265;42.694;23.282;2022-10-22T03:20:59;35.33;;;20.03;;
6463;SDS011;3265;42.694;23.282;2022-10-22T03:23:31;41.53;;;20.43;;
6463;SDS011;3265;42.694;23.282;2022-10-22T03:25:58;32.93;;;20.07;;
6463;SDS011;3265;42.694;23.282;2022-10-22T03:28:25;33.70;;;20.77;;
6463;SDS011;3265;42.694;23.282;2022-10-22T03:30:52;37.03;;;21.20;;
6463;SDS011;3265;42.694;23.282;2022-10-22T03:33:19;46.47;;;24.87;;
6463;SDS011;3265;42.694;23.282;2022-10-22T03:35:46;40.47;;;22.97;;
6463;SDS011;3265;42.694;23.282;2022-10-22T03:38:13;36.50;;;22.50;;
6463;SDS011;3265;42.694;23.282;2022-10-22T03:40:42;39.13;;;22.30;;
6463;SDS011;3265;42.694;23.282;2022-10-22T03:43:11;39.10;;;23.60;;
6463;SDS011;3265;42.694;23.282;2022-10-22T03:45:39;38.23;;;22.73;;
6463;SDS011;3265;42.694;23.282;2022-10-22T03:48:05;39.93;;;23.17;;
6463;SDS011;3265;42.694;23.282;2022-10-22T03:50:32;46.80;;;23.43;;
6463;SDS011;3265;42.694;23.282;2022-10-22T03:52:59;45.80;;;24.67;;
6463;SDS011;3265;42.694;23.282;2022-10-22T03:55:26;43.40;;;23.00;;
6463;SDS011;3265;42.694;23.282;2022-10-22T03:57:54;42.20;;;24.40;;
6463;SDS011;3265;42.694;23.282;2022-10-22T04:00:21;42.07;;;24.20;;
6463;SDS011;3265;42.694;23.282;2022-10-22T04:02:48;40.27;;;24.47;;
6463;SDS011;3265;42.694;23.282;2022-10-22T04:05:14;40.70;;;24.47;;
6463;SDS011;3265;42.694;23.282;2022-10-22T04:07:41;40.17;;;22.67;;
6463;SDS011;3265;42.694;23.282;2022-10-22T04:10:08;40.03;;;22.10;;
6463;SDS011;3265;42.694;23.282;2022-10-22T04:12:35;40.97;;;22.47;;
6463;SDS011;3265;42.694;23.282;2022-10-22T04:15:03;41.37;;;25.13;;
6463;SDS011;3265;42.694;23.282;2022-10-22T04:17:34;40.33;;;24.17;;
6463;SDS011;3265;42.694;23.282;2022-10-22T04:20:02;44.77;;;26.83;;
6463;SDS011;3265;42.694;23.282;2022-10-22T04:22:31;47.17;;;27.30;;
6463;SDS011;3265;42.694;23.282;2022-10-22T04:24:59;45.10;;;26.33;;
6463;SDS011;3265;42.694;23.282;2022-10-22T04:27:28;45.23;;;27.63;;
6463;SDS011;3265;42.694;23.282;2022-10-22T04:29:55;44.23;;;27.20;;
6463;SDS011;3265;42.694;23.282;2022-10-22T04:32:24;48.60;;;27.70;;
6463;SDS011;3265;42.694;23.282;2022-10-22T04:34:51;41.43;;;26.20;;
6463;SDS011;3265;42.694;23.282;2022-10-22T04:37:18;45.93;;;26.70;;
6463;SDS011;3265;42.694;23.282;2022-10-22T04:39:45;40.23;;;25.77;;
6463;SDS011;3265;42.694;23.282;2022-10-22T04:42:12;43.83;;;27.13;;
6463;SDS011;3265;42.694;23.282;2022-10-22T04:44:38;42.40;;;25.03;;
6463;SDS011;3265;42.694;23.282;2022-10-22T04:47:05;42.40;;;27.07;;
6463;SDS011;3265;42.694;23.282;2022-10-22T04:49:33;42.70;;;25.20;;
6463;SDS011;3265;42.694;23.282;2022-10-22T04:52:00;39.67;;;25.67;;
6463;SDS011;3265;42.694;23.282;2022-10-22T04:54:27;47.03;;;29.00;;
6463;SDS011;3265;42.694;23.282;2022-10-22T04:56:54;52.87;;;30.20;;
6463;SDS011;3265;42.694;23.282;2022-10-22T04:59:21;51.27;;;31.57;;
6463;SDS011;3265;42.694;23.282;2022-10-22T05:01:47;69.07;;;36.80;;
6463;SDS011;3265;42.694;23.282;2022-10-22T05:04:15;74.73;;;38.80;;
6463;SDS011;3265;42.694;23.282;2022-10-22T05:06:45;78.87;;;40.60;;
6463;SDS011;3265;42.694;23.282;2022-10-22T05:09:13;84.30;;;43.53;;
6463;SDS011;3265;42.694;23.282;2022-10-22T05:11:42;90.87;;;49.53;;
6463;SDS011;3265;42.694;23.282;2022-10-22T05:14:12;85.80;;;49.37;;
6463;SDS011;3265;42.694;23.282;2022-10-22T05:16:40;92.77;;;49.03;;
6463;SDS011;3265;42.694;23.282;2022-10-22T05:19:07;89.13;;;48.83;;
6463;SDS011;3265;42.694;23.282;2022-10-22T05:21:34;77.70;;;43.67;;
6463;SDS011;3265;42.694;23.282;2022-10-22T05:24:04;79.23;;;43.83;;
6463;SDS011;3265;42.694;23.282;2022-10-22T05:26:31;104.23;;;54.17;;
6463;SDS011;3265;42.694;23.282;2022-10-22T05:28:58;80.53;;;44.90;;
6463;SDS011;3265;42.694;23.282;2022-10-22T05:31:25;70.43;;;40.90;;
6463;SDS011;3265;42.694;23.282;2022-10-22T05:33:53;69.30;;;37.83;;
6463;SDS011;3265;42.694;23.282;2022-10-22T05:36:20;66.53;;;37.13;;
6463;SDS011;3265;42.694;23.282;2022-10-22T05:38:48;88.63;;;47.07;;
6463;SDS011;3265;42.694;23.282;2022-10-22T05:41:17;83.47;;;44.53;;
6463;SDS011;3265;42.694;23.282;2022-10-22T05:43:45;86.97;;;47.20;;
6463;SDS011;3265;42.694;23.282;2022-10-22T05:46:16;78.90;;;45.43;;
6463;SDS011;3265;42.694;23.282;2022-10-22T05:48:47;91.60;;;45.77;;
6463;SDS011;3265;42.694;23.282;2022-10-22T05:51:14;99.80;;;50.70;;
6463;SDS011;3265;42.694;23.282;2022-10-22T05:53:41;87.40;;;48.23;;
6463;SDS011;3265;42.694;23.282;2022-10-22T05:56:10;86.67;;;46.27;;
6463;SDS011;3265;42.694;23.282;2022-10-22T05:58:40;67.83;;;37.97;;
6463;SDS011;3265;42.694;23.282;2022-10-22T06:01:09;82.27;;;42.23;;
6463;SDS011;3265;42.694;23.282;2022-10-22T06:03:38;80.43;;;44.43;;
6463;SDS011;3265;42.694;23.282;2022-10-22T06:06:06;85.10;;;46.23;;
6463;SDS011;3265;42.694;23.282;2022-10-22T06:08:43;81.27;;;45.80;;
6463;SDS011;3265;42.694;23.282;2022-10-22T06:11:11;79.83;;;45.17;;
6463;SDS011;3265;42.694;23.282;2022-10-22T06:13:38;81.10;;;43.97;;
6463;SDS011;3265;42.694;23.282;2022-10-22T06:16:06;69.90;;;39.97;;
6463;SDS011;3265;42.694;23.282;2022-10-22T06:18:33;71.53;;;40.57;;
6463;SDS011;3265;42.694;23.282;2022-10-22T06:21:03;73.03;;;38.53;;
6463;SDS011;3265;42.694;23.282;2022-10-22T06:23:31;75.23;;;41.83;;
6463;SDS011;3265;42.694;23.282;2022-10-22T06:25:58;60.13;;;37.50;;
6463;SDS011;3265;42.694;23.282;2022-10-22T06:28:25;64.37;;;37.73;;
6463;SDS011;3265;42.694;23.282;2022-10-22T06:30:55;62.93;;;38.47;;
6463;SDS011;3265;42.694;23.282;2022-10-22T06:33:23;71.33;;;39.87;;
6463;SDS011;3265;42.694;23.282;2022-10-22T06:35:50;72.27;;;41.00;;
6463;SDS011;3265;42.694;23.282;2022-10-22T06:38:17;71.87;;;41.30;;
6463;SDS011;3265;42.694;23.282;2022-10-22T06:40:44;69.73;;;39.50;;
6463;SDS011;3265;42.694;23.282;2022-10-22T06:43:11;65.37;;;37.27;;
6463;SDS011;3265;42.694;23.282;2022-10-22T06:45:39;55.23;;;33.60;;
6463;SDS011;3265;42.694;23.282;2022-10-22T06:48:07;62.03;;;33.17;;
6463;SDS011;3265;42.694;23.282;2022-10-22T06:50:34;49.10;;;30.33;;
6463;SDS011;3265;42.694;23.282;2022-10-22T06:53:01;52.93;;;31.00;;
6463;SDS011;3265;42.694;23.282;2022-10-22T06:55:28;59.40;;;31.37;;
6463;SDS011;3265;42.694;23.282;2022-10-22T06:57:55;53.00;;;31.07;;
6463;SDS011;3265;42.694;23.282;2022-10-22T07:00:22;50.40;;;30.97;;
6463;SDS011;3265;42.694;23.282;2022-10-22T07:02:49;46.93;;;28.80;;
6463;SDS011;3265;42.694;23.282;2022-10-22T07:05:19;45.30;;;28.63;;
6463;SDS011;3265;42.694;23.282;2022-10-22T07:07:46;44.37;;;27.27;;
6463;SDS011;3265;42.694;23.282;2022-10-22T07:10:13;43.30;;;26.93;;
6463;SDS011;3265;42.694;23.282;2022-10-22T07:12:40;44.63;;;27.37;;
6463;SDS011;3265;42.694;23.282;2022-10-22T07:15:07;51.57;;;29.37;;
6463;SDS011;3265;42.694;23.282;2022-10-22T07:17:34;48.23;;;29.17;;
6463;SDS011;3265;42.694;23.282;2022-10-22T07:20:01;44.87;;;29.00;;
6463;SDS011;3265;42.694;23.282;2022-10-22T07:22:29;46.57;;;28.93;;
6463;SDS011;3265;42.694;23.282;2022-10-22T07:24:56;49.30;;;29.40;;
6463;SDS011;3265;42.694;23.282;2022-10-22T07:27:23;48.47;;;29.93;;
6463;SDS011;3265;42.694;23.282;2022-10-22T07:29:50;49.07;;;28.07;;
6463;SDS011;3265;42.694;23.282;2022-10-22T07:32:17;44.07;;;28.47;;
6463;SDS011;3265;42.694;23.282;2022-10-22T07:34:44;46.00;;;26.47;;
6463;SDS011;3265;42.694;23.282;2022-10-22T07:37:10;46.33;;;26.40;;
6463;SDS011;3265;42.694;23.282;2022-10-22T07:39:39;42.77;;;24.13;;
6463;SDS011;3265;42.694;23.282;2022-10-22T07:42:05;40.43;;;25.00;;
6463;SDS011;3265;42.694;23.282;2022-10-22T07:44:32;33.30;;;22.00;;
6463;SDS011;3265;42.694;23.282;2022-10-22T07:46:59;40.07;;;24.83;;
6463;SDS011;3265;42.694;23.282;2022-10-22T07:49:26;42.60;;;25.17;;
6463;SDS011;3265;42.694;23.282;2022-10-22T07:51:52;42.20;;;25.33;;
6463;SDS011;3265;42.694;23.282;2022-10-22T07:54:21;42.27;;;23.90;;
6463;SDS011;3265;42.694;23.282;2022-10-22T07:56:49;45.77;;;25.17;;
6463;SDS011;3265;42.694;23.282;2022-10-22T07:59:16;45.87;;;26.03;;
6463;SDS011;3265;42.694;23.282;2022-10-22T08:01:42;47.37;;;25.30;;
6463;SDS011;3265;42.694;23.282;2022-10-22T08:04:11;43.20;;;25.83;;
6463;SDS011;3265;42.694;23.282;2022-10-22T08:06:38;43.87;;;25.23;;
6463;SDS011;3265;42.694;23.282;2022-10-22T08:09:04;45.07;;;24.97;;
6463;SDS011;3265;42.694;23.282;2022-10-22T08:11:31;42.27;;;25.03;;
6463;SDS011;3265;42.694;23.282;2022-10-22T08:14:00;40.10;;;25.77;;
6463;SDS011;3265;42.694;23.282;2022-10-22T08:16:28;49.40;;;25.17;;
6463;SDS011;3265;42.694;23.282;2022-10-22T08:18:55;38.63;;;25.03;;
6463;SDS011;3265;42.694;23.282;2022-10-22T08:21:22;43.37;;;26.03;;
6463;SDS011;3265;42.694;23.282;2022-10-22T08:23:49;45.77;;;27.17;;
6463;SDS011;3265;42.694;23.282;2022-10-22T08:26:15;41.80;;;25.53;;
6463;SDS011;3265;42.694;23.282;2022-10-22T08:28:42;40.67;;;26.27;;
6463;SDS011;3265;42.694;23.282;2022-10-22T08:31:10;40.17;;;25.20;;
6463;SDS011;3265;42.694;23.282;2022-10-22T08:33:41;44.03;;;25.60;;
6463;SDS011;3265;42.694;23.282;2022-10-22T08:36:08;43.27;;;25.87;;
6463;SDS011;3265;42.694;23.282;2022-10-22T08:38:35;43.57;;;27.33;;
6463;SDS011;3265;42.694;23.282;2022-10-22T08:41:05;61.53;;;26.73;;
6463;SDS011;3265;42.694;23.282;2022-10-22T08:43:40;49.90;;;26.00;;
6463;SDS011;3265;42.694;23.282;2022-10-22T08:46:31;44.30;;;25.27;;
6463;SDS011;3265;42.694;23.282;2022-10-22T08:49:10;35.67;;;21.53;;
6463;SDS011;3265;42.694;23.282;2022-10-22T08:51:42;36.87;;;21.37;;
6463;SDS011;3265;42.694;23.282;2022-10-22T08:54:17;42.43;;;23.30;;
6463;SDS011;3265;42.694;23.282;2022-10-22T08:56:53;40.23;;;25.23;;
6463;SDS011;3265;42.694;23.282;2022-10-22T08:59:32;37.53;;;25.00;;
6463;SDS011;3265;42.694;23.282;2022-10-22T09:02:13;39.90;;;24.67;;
6463;SDS011;3265;42.694;23.282;2022-10-22T09:04:52;53.77;;;24.40;;
6463;SDS011;3265;42.694;23.282;2022-10-22T09:07:27;42.07;;;24.53;;
6463;SDS011;3265;42.694;23.282;2022-10-22T09:09:54;37.17;;;24.30;;
6463;SDS011;3265;42.694;23.282;2022-10-22T09:12:25;45.20;;;23.27;;
6463;SDS011;3265;42.694;23.282;2022-10-22T09:14:53;32.20;;;21.83;;
6463;SDS011;3265;42.694;23.282;2022-10-22T09:17:24;35.87;;;22.17;;
6463;SDS011;3265;42.694;23.282;2022-10-22T09:19:59;36.33;;;21.70;;
6463;SDS011;3265;42.694;23.282;2022-10-22T09:22:36;29.50;;;21.27;;
6463;SDS011;3265;42.694;23.282;2022-10-22T09:25:13;31.83;;;20.93;;
6463;SDS011;3265;42.694;23.282;2022-10-22T09:27:45;32.43;;;21.57;;
6463;SDS011;3265;42.694;23.282;2022-10-22T09:30:13;36.73;;;21.10;;
6463;SDS011;3265;42.694;23.282;2022-10-22T09:32:44;31.88;;;21.65;;
6463;SDS011;3265;42.694;23.282;2022-10-22T09:35:11;35.88;;;23.38;;
6463;SDS011;3265;42.694;23.282;2022-10-22T09:37:46;37.75;;;23.27;;
6463;SDS011;3265;42.694;23.282;2022-10-22T09:40:14;38.25;;;23.05;;
6463;SDS011;3265;42.694;23.282;2022-10-22T09:42:42;32.83;;;21.58;;
6463;SDS011;3265;42.694;23.282;2022-10-22T09:45:14;39.05;;;22.33;;
6463;SDS011;3265;42.694;23.282;2022-10-22T09:47:45;33.60;;;22.17;;
6463;SDS011;3265;42.694;23.282;2022-10-22T09:50:20;40.40;;;22.63;;
6463;SDS011;3265;42.694;23.282;2022-10-22T09:52:58;38.63;;;23.40;;
6463;SDS011;3265;42.694;23.282;2022-10-22T09:55:29;37.42;;;22.10;;
6463;SDS011;3265;42.694;23.282;2022-10-22T09:57:57;33.47;;;22.38;;
6463;SDS011;3265;42.694;23.282;2022-10-22T10:00:25;35.75;;;22.10;;
6463;SDS011;3265;42.694;23.282;2022-10-22T10:02:54;36.05;;;21.55;;
6463;SDS011;3265;42.694;23.282;2022-10-22T10:05:26;37.60;;;23.45;;
6463;SDS011;3265;42.694;23.282;2022-10-22T10:07:55;31.63;;;21.65;;
6463;SDS011;3265;42.694;23.282;2022-10-22T10:10:27;36.30;;;21.88;;
6463;SDS011;3265;42.694;23.282;2022-10-22T10:13:02;30.50;;;21.40;;
6463;SDS011;3265;42.694;23.282;2022-10-22T10:15:39;40.40;;;21.50;;
6463;SDS011;3265;42.694;23.282;2022-10-22T10:18:14;33.58;;;22.55;;
6463;SDS011;3265;42.694;23.282;2022-10-22T10:20:49;40.47;;;23.08;;
6463;SDS011;3265;42.694;23.282;2022-10-22T10:23:25;35.45;;;21.58;;
6463;SDS011;3265;42.694;23.282;2022-10-22T10:26:00;28.27;;;20.92;;
6463;SDS011;3265;42.694;23.282;2022-10-22T10:31:23;34.78;;;22.17;;
6463;SDS011;3265;42.694;23.282;2022-10-22T10:34:03;35.25;;;21.95;;
6463;SDS011;3265;42.694;23.282;2022-10-22T10:36:42;31.85;;;21.05;;
6463;SDS011;3265;42.694;23.282;2022-10-22T10:39:21;37.05;;;20.75;;
6463;SDS011;3265;42.694;23.282;2022-10-22T10:41:57;33.55;;;22.10;;
6463;SDS011;3265;42.694;23.282;2022-10-22T10:47:32;33.45;;;20.63;;
6463;SDS011;3265;42.694;23.282;2022-10-22T10:50:17;30.23;;;20.50;;
6463;SDS011;3265;42.694;23.282;2022-10-22T10:52:57;32.25;;;20.67;;
6463;SDS011;3265;42.694;23.282;2022-10-22T10:55:34;32.78;;;20.58;;
6463;SDS011;3265;42.694;23.282;2022-10-22T10:58:11;26.08;;;20.25;;
6463;SDS011;3265;42.694;23.282;2022-10-22T11:00:47;30.23;;;19.33;;
6463;SDS011;3265;42.694;23.282;2022-10-22T11:03:33;28.63;;;18.90;;
6463;SDS011;3265;42.694;23.282;2022-10-22T11:06:14;26.48;;;17.95;;
6463;SDS011;3265;42.694;23.282;2022-10-22T11:08:45;29.35;;;19.35;;
6463;SDS011;3265;42.694;23.282;2022-10-22T11:11:20;25.40;;;17.27;;
6463;SDS011;3265;42.694;23.282;2022-10-22T11:13:55;33.15;;;18.85;;
6463;SDS011;3265;42.694;23.282;2022-10-22T11:16:28;28.88;;;18.92;;
6463;SDS011;3265;42.694;23.282;2022-10-22T11:19:02;24.50;;;17.92;;
6463;SDS011;3265;42.694;23.282;2022-10-22T11:21:36;25.73;;;16.75;;
6463;SDS011;3265;42.694;23.282;2022-10-22T11:24:08;24.38;;;17.45;;
6463;SDS011;3265;42.694;23.282;2022-10-22T11:26:44;27.02;;;16.73;;
6463;SDS011;3265;42.694;23.282;2022-10-22T11:29:14;23.05;;;16.02;;
6463;SDS011;3265;42.694;23.282;2022-10-22T11:31:45;26.75;;;17.17;;
6463;SDS011;3265;42.694;23.282;2022-10-22T11:34:14;22.75;;;15.93;;
6463;SDS011;3265;42.694;23.282;2022-10-22T11:36:46;22.35;;;16.38;;
6463;SDS011;3265;42.694;23.282;2022-10-22T11:42:11;26.00;;;15.60;;
6463;SDS011;3265;42.694;23.282;2022-10-22T11:44:47;28.67;;;15.35;;
6463;SDS011;3265;42.694;23.282;2022-10-22T11:47:25;28.80;;;15.63;;
6463;SDS011;3265;42.694;23.282;2022-10-22T11:49:57;26.42;;;16.52;;
6463;SDS011;3265;42.694;23.282;2022-10-22T11:52:39;23.33;;;15.25;;
6463;SDS011;3265;42.694;23.282;2022-10-22T11:57:59;27.08;;;14.27;;
6463;SDS011;3265;42.694;23.282;2022-10-22T12:00:38;26.02;;;14.57;;
6463;SDS011;3265;42.694;23.282;2022-10-22T12:03:15;24.35;;;14.43;;
6463;SDS011;3265;42.694;23.282;2022-10-22T12:05:44;25.83;;;14.82;;
6463;SDS011;3265;42.694;23.282;2022-10-22T12:08:16;26.50;;;14.65;;
6463;SDS011;3265;42.694;23.282;2022-10-22T12:13:54;21.17;;;13.40;;
6463;SDS011;3265;42.694;23.282;2022-10-22T12:16:27;22.33;;;13.38;;
6463;SDS011;3265;42.694;23.282;2022-10-22T12:19:02;20.58;;;13.48;;
6463;SDS011;3265;42.694;23.282;2022-10-22T12:21:32;26.10;;;13.75;;
6463;SDS011;3265;42.694;23.282;2022-10-22T12:24:00;21.67;;;13.55;;
6463;SDS011;3265;42.694;23.282;2022-10-22T12:26:29;20.02;;;13.88;;
6463;SDS011;3265;42.694;23.282;2022-10-22T12:28:59;21.75;;;13.80;;
6463;SDS011;3265;42.694;23.282;2022-10-22T12:31:27;19.92;;;13.35;;
6463;SDS011;3265;42.694;23.282;2022-10-22T12:34:01;19.85;;;13.80;;
6463;SDS011;3265;42.694;23.282;2022-10-22T12:36:28;21.70;;;12.90;;
6463;SDS011;3265;42.694;23.282;2022-10-22T12:38:58;22.52;;;14.25;;
6463;SDS011;3265;42.694;23.282;2022-10-22T12:41:30;25.23;;;14.02;;
6463;SDS011;3265;42.694;23.282;2022-10-22T12:43:58;23.15;;;13.25;;
6463;SDS011;3265;42.694;23.282;2022-10-22T12:46:25;17.20;;;12.93;;
6463;SDS011;3265;42.694;23.282;2022-10-22T12:48:53;23.30;;;12.93;;
6463;SDS011;3265;42.694;23.282;2022-10-22T12:51:21;25.08;;;13.43;;
6463;SDS011;3265;42.694;23.282;2022-10-22T12:53:48;22.70;;;12.77;;
6463;SDS011;3265;42.694;23.282;2022-10-22T12:56:20;27.38;;;12.43;;
6463;SDS011;3265;42.694;23.282;2022-10-22T12:58:52;29.45;;;12.80;;
6463;SDS011;3265;42.694;23.282;2022-10-22T13:01:25;20.13;;;12.55;;
6463;SDS011;3265;42.694;23.282;2022-10-22T13:04:03;21.40;;;13.07;;
6463;SDS011;3265;42.694;23.282;2022-10-22T13:06:32;17.50;;;12.30;;
6463;SDS011;3265;42.694;23.282;2022-10-22T13:09:11;27.90;;;12.93;;
6463;SDS011;3265;42.694;23.282;2022-10-22T13:11:47;19.25;;;12.35;;
6463;SDS011;3265;42.694;23.282;2022-10-22T13:14:26;21.08;;;12.40;;
6463;SDS011;3265;42.694;23.282;2022-10-22T13:17:07;18.23;;;11.13;;
6463;SDS011;3265;42.694;23.282;2022-10-22T13:19:38;22.30;;;11.38;;
6463;SDS011;3265;42.694;23.282;2022-10-22T13:22:25;27.00;;;11.80;;
6463;SDS011;3265;42.694;23.282;2022-10-22T13:24:57;17.02;;;10.77;;
6463;SDS011;3265;42.694;23.282;2022-10-22T13:27:26;19.42;;;11.40;;
6463;SDS011;3265;42.694;23.282;2022-10-22T13:29:55;17.90;;;11.05;;
6463;SDS011;3265;42.694;23.282;2022-10-22T13:32:29;21.15;;;10.75;;
6463;SDS011;3265;42.694;23.282;2022-10-22T13:34:58;19.27;;;10.52;;
6463;SDS011;3265;42.694;23.282;2022-10-22T13:37:26;17.75;;;10.63;;
6463;SDS011;3265;42.694;23.282;2022-10-22T13:39:55;16.77;;;11.07;;
6463;SDS011;3265;42.694;23.282;2022-10-22T13:42:22;15.77;;;10.55;;
6463;SDS011;3265;42.694;23.282;2022-10-22T13:44:48;20.25;;;11.02;;
6463;SDS011;3265;42.694;23.282;2022-10-22T13:47:21;17.17;;;10.88;;
6463;SDS011;3265;42.694;23.282;2022-10-22T13:49:51;18.85;;;11.00;;
6463;SDS011;3265;42.694;23.282;2022-10-22T13:52:26;19.30;;;11.23;;
6463;SDS011;3265;42.694;23.282;2022-10-22T13:54:55;18.42;;;10.73;;
6463;SDS011;3265;42.694;23.282;2022-10-22T13:57:21;19.60;;;10.60;;
6463;SDS011;3265;42.694;23.282;2022-10-22T13:59:48;22.55;;;10.82;;
6463;SDS011;3265;42.694;23.282;2022-10-22T14:02:15;22.52;;;10.43;;
6463;SDS011;3265;42.694;23.282;2022-10-22T14:04:44;20.77;;;10.02;;
6463;SDS011;3265;42.694;23.282;2022-10-22T14:07:12;20.55;;;11.07;;
6463;SDS011;3265;42.694;23.282;2022-10-22T14:09:40;19.25;;;11.18;;
6463;SDS011;3265;42.694;23.282;2022-10-22T14:12:09;20.73;;;10.60;;
6463;SDS011;3265;42.694;23.282;2022-10-22T14:14:37;25.92;;;10.93;;
6463;SDS011;3265;42.694;23.282;2022-10-22T14:17:04;23.67;;;11.55;;
6463;SDS011;3265;42.694;23.282;2022-10-22T14:19:31;18.83;;;11.32;;
6463;SDS011;3265;42.694;23.282;2022-10-22T14:21:59;25.60;;;11.25;;
6463;SDS011;3265;42.694;23.282;2022-10-22T14:24:26;19.55;;;11.20;;
6463;SDS011;3265;42.694;23.282;2022-10-22T14:26:52;16.92;;;11.25;;
6463;SDS011;3265;42.694;23.282;2022-10-22T14:29:19;21.38;;;11.13;;
6463;SDS011;3265;42.694;23.282;2022-10-22T14:31:46;20.60;;;10.75;;
6463;SDS011;3265;42.694;23.282;2022-10-22T14:34:14;22.58;;;11.75;;
6463;SDS011;3265;42.694;23.282;2022-10-22T14:36:41;21.65;;;11.02;;
6463;SDS011;3265;42.694;23.282;2022-10-22T14:39:10;20.73;;;10.80;;
6463;SDS011;3265;42.694;23.282;2022-10-22T14:41:37;25.50;;;11.43;;
6463;SDS011;3265;42.694;23.282;2022-10-22T14:44:07;17.48;;;11.30;;
6463;SDS011;3265;42.694;23.282;2022-10-22T14:46:38;22.85;;;10.80;;
6463;SDS011;3265;42.694;23.282;2022-10-22T14:49:06;26.02;;;11.73;;
6463;SDS011;3265;42.694;23.282;2022-10-22T14:51:33;21.98;;;11.38;;
6463;SDS011;3265;42.694;23.282;2022-10-22T14:54:00;26.55;;;11.50;;
6463;SDS011;3265;42.694;23.282;2022-10-22T14:56:28;25.10;;;11.70;;
6463;SDS011;3265;42.694;23.282;2022-10-22T14:58:55;24.17;;;12.05;;
6463;SDS011;3265;42.694;23.282;2022-10-22T15:01:22;25.60;;;11.07;;
6463;SDS011;3265;42.694;23.282;2022-10-22T15:03:50;21.80;;;12.38;;
6463;SDS011;3265;42.694;23.282;2022-10-22T15:06:17;24.65;;;12.32;;
6463;SDS011;3265;42.694;23.282;2022-10-22T15:08:44;22.70;;;13.05;;
6463;SDS011;3265;42.694;23.282;2022-10-22T15:11:11;25.33;;;12.80;;
6463;SDS011;3265;42.694;23.282;2022-10-22T15:13:40;33.15;;;15.07;;